Time;durP1;ratioP1;P1;durP2;ratioP2;P2;SDS_P1;SDS_P2;PMS_P1;PMS_P2;Temp;Humidity;BMP_temperature;BMP_pressure;BME280_temperature;BME280_humidity;BME280_pressure;Samples;Min_cycle;Max_cycle;Signal;HPM_P1;HPM_P2
2021/09/03 00:00:14;;;;;;;58.63;2.87;;;12.40;1.00;;;;;;5074356;28;20444;-73
2021/09/03 00:02:42;;;;;;;58.53;2.73;;;12.30;1.00;;;;;;5074154;28;20497;-72
2021/09/03 00:05:13;;;;;;;58.47;2.60;;;12.30;1.00;;;;;;5074324;28;20451;-72
2021/09/03 00:07:40;;;;;;;58.27;2.80;;;12.30;1.00;;;;;;5074054;28;20891;-72
2021/09/03 00:10:09;;;;;;;58.37;3.00;;;12.30;1.00;;;;;;5073964;28;20542;-72
2021/09/03 00:12:36;;;;;;;60.50;3.53;;;12.30;1.00;;;;;;5074177;28;20839;-72
2021/09/03 00:15:03;;;;;;;58.50;2.70;;;12.30;1.00;;;;;;5074289;28;20533;-73
2021/09/03 00:17:30;;;;;;;59.37;3.10;;;12.30;1.00;;;;;;5074123;28;20541;-72
2021/09/03 00:19:58;;;;;;;58.53;2.70;;;12.20;1.00;;;;;;5073712;28;20538;-73
2021/09/03 00:22:25;;;;;;;58.77;3.00;;;12.20;1.00;;;;;;5073759;28;20514;-73
2021/09/03 00:24:52;;;;;;;58.53;2.90;;;12.10;1.00;;;;;;5074136;28;20450;-73
2021/09/03 00:27:19;;;;;;;58.53;2.90;;;12.10;1.00;;;;;;5074155;28;20482;-73
2021/09/03 00:29:46;;;;;;;58.47;2.80;;;12.10;1.00;;;;;;5073806;28;20450;-73
2021/09/03 00:32:12;;;;;;;58.33;2.70;;;12.10;1.00;;;;;;5073727;28;20904;-73
2021/09/03 00:34:39;;;;;;;58.50;2.90;;;12.10;1.00;;;;;;5073622;28;20493;-73
2021/09/03 00:37:07;;;;;;;58.27;2.90;;;12.10;1.00;;;;;;5073853;28;20486;-73
2021/09/03 00:39:34;;;;;;;58.77;3.43;;;12.10;1.00;;;;;;5073467;28;21132;-73
2021/09/03 00:42:01;;;;;;;58.60;2.90;;;12.10;1.00;;;;;;5073558;28;20529;-73
2021/09/03 00:44:28;;;;;;;58.77;2.90;;;12.10;1.00;;;;;;5073918;28;20972;-73
2021/09/03 00:46:55;;;;;;;58.67;3.20;;;12.10;1.00;;;;;;5073365;28;20509;-73
2021/09/03 00:49:22;;;;;;;58.37;3.00;;;12.10;1.00;;;;;;5073107;28;20530;-73
2021/09/03 00:51:49;;;;;;;58.37;3.30;;;12.00;1.00;;;;;;5073557;28;20451;-73
2021/09/03 00:54:17;;;;;;;58.60;3.10;;;12.00;1.00;;;;;;5073286;28;20532;-73
2021/09/03 00:56:45;;;;;;;58.57;2.83;;;12.00;1.00;;;;;;5073394;28;20483;-73
2021/09/03 00:59:12;;;;;;;58.43;2.73;;;12.00;1.00;;;;;;5073113;28;20470;-73
2021/09/03 01:01:39;;;;;;;58.47;2.70;;;12.00;1.00;;;;;;5073077;28;20447;-72
2021/09/03 01:04:06;;;;;;;58.67;2.87;;;11.90;1.00;;;;;;5072789;28;20500;-73
2021/09/03 01:06:33;;;;;;;58.37;2.80;;;11.90;1.00;;;;;;5072809;28;20447;-73
2021/09/03 01:09:00;;;;;;;59.10;3.87;;;11.80;1.00;;;;;;5073175;28;20447;-73
2021/09/03 01:11:28;;;;;;;59.17;3.30;;;11.70;1.00;;;;;;5073009;28;20482;-73
2021/09/03 01:13:55;;;;;;;59.50;3.40;;;11.70;1.00;;;;;;5072898;28;20465;-73
2021/09/03 01:16:22;;;;;;;58.87;3.33;;;11.70;1.00;;;;;;5072816;28;20888;-73
2021/09/03 01:18:49;;;;;;;58.50;2.90;;;11.70;1.00;;;;;;5073114;28;20511;-73
2021/09/03 01:21:16;;;;;;;59.30;3.63;;;11.70;1.00;;;;;;5072958;28;20443;-72
2021/09/03 01:23:44;;;;;;;58.63;2.93;;;11.70;1.00;;;;;;5072743;28;20493;-73
2021/09/03 01:26:11;;;;;;;59.13;3.10;;;11.70;1.00;;;;;;5072755;28;20449;-73
2021/09/03 01:28:39;;;;;;;58.80;3.20;;;11.70;1.00;;;;;;5072624;28;20454;-73
2021/09/03 01:31:06;;;;;;;58.80;3.20;;;11.70;1.00;;;;;;5072399;28;21016;-73
2021/09/03 01:33:33;;;;;;;58.77;3.00;;;11.70;1.00;;;;;;5072482;28;21043;-70
2021/09/03 01:36:01;;;;;;;58.57;3.00;;;11.70;1.00;;;;;;5072682;28;20450;-70
2021/09/03 01:38:27;;;;;;;58.60;2.90;;;11.60;1.00;;;;;;5072394;28;20551;-71
2021/09/03 01:40:56;;;;;;;58.80;3.40;;;11.50;1.00;;;;;;5072322;28;20538;-71
2021/09/03 01:43:22;;;;;;;58.63;3.10;;;11.40;1.00;;;;;;5072159;28;20582;-71
2021/09/03 01:45:49;;;;;;;58.77;3.00;;;11.40;1.00;;;;;;5072219;28;20447;-71
2021/09/03 01:48:16;;;;;;;58.60;3.07;;;11.40;1.00;;;;;;5071172;28;20447;-71
2021/09/03 01:50:43;;;;;;;58.57;3.00;;;11.40;1.00;;;;;;5072265;28;20542;-71
2021/09/03 01:53:10;;;;;;;58.77;3.50;;;11.40;1.00;;;;;;5072166;28;20546;-71
2021/09/03 01:55:37;;;;;;;58.57;3.07;;;11.40;1.00;;;;;;5072072;28;20449;-71
2021/09/03 01:58:05;;;;;;;58.87;3.30;;;11.30;1.00;;;;;;5072339;28;20475;-72
2021/09/03 02:00:32;;;;;;;58.57;3.20;;;11.30;1.00;;;;;;5072049;28;20538;-72
2021/09/03 02:02:59;;;;;;;58.70;3.30;;;11.20;1.00;;;;;;5071932;28;21019;-71
2021/09/03 02:05:25;;;;;;;58.37;3.10;;;11.20;1.00;;;;;;5072281;28;20447;-71
2021/09/03 02:07:52;;;;;;;58.70;3.70;;;11.20;1.00;;;;;;5072019;28;20542;-72
2021/09/03 02:10:19;;;;;;;58.73;3.00;;;11.10;1.00;;;;;;5071735;28;20547;-71
2021/09/03 02:12:46;;;;;;;58.37;2.87;;;11.10;1.00;;;;;;5071838;28;20542;-71
2021/09/03 02:15:14;;;;;;;58.43;3.10;;;11.00;1.00;;;;;;5072067;28;20542;-72
2021/09/03 02:17:41;;;;;;;58.57;3.07;;;11.00;1.00;;;;;;5071596;28;20486;-71
2021/09/03 02:20:09;;;;;;;59.67;3.30;;;11.00;1.00;;;;;;5071361;28;20526;-72
2021/09/03 02:22:36;;;;;;;58.57;3.00;;;11.00;1.00;;;;;;5072014;28;20550;-71
2021/09/03 02:25:04;;;;;;;58.60;2.70;;;11.00;1.00;;;;;;5072103;28;20453;-71
2021/09/03 02:27:31;;;;;;;59.20;3.17;;;11.00;1.00;;;;;;5071962;28;20455;-71
2021/09/03 02:29:57;;;;;;;59.10;3.30;;;11.00;1.00;;;;;;5071386;28;20447;-71
2021/09/03 02:32:26;;;;;;;59.13;3.33;;;10.90;1.00;;;;;;5071866;28;20477;-72
2021/09/03 02:34:53;;;;;;;58.57;3.20;;;10.90;1.00;;;;;;5071870;28;20538;-72
2021/09/03 02:37:19;;;;;;;58.43;2.80;;;10.90;1.00;;;;;;5072326;28;20511;-72
2021/09/03 02:39:46;;;;;;;58.63;2.90;;;10.90;1.00;;;;;;5075988;28;20483;-72
2021/09/03 02:42:13;;;;;;;58.67;3.10;;;10.90;1.00;;;;;;5076291;28;20553;-71
2021/09/03 02:44:40;;;;;;;58.90;3.00;;;10.90;1.00;;;;;;5071895;28;20534;-71
2021/09/03 02:47:07;;;;;;;59.13;3.70;;;10.90;1.00;;;;;;5071654;28;20493;-71
2021/09/03 02:49:35;;;;;;;58.50;3.10;;;10.90;1.00;;;;;;5071370;28;20537;-72
2021/09/03 02:52:02;;;;;;;58.97;3.77;;;10.90;1.00;;;;;;5071466;28;20483;-72
2021/09/03 02:54:29;;;;;;;58.47;2.90;;;10.90;1.00;;;;;;5071682;28;20829;-72
2021/09/03 02:56:55;;;;;;;58.77;3.10;;;10.80;1.00;;;;;;5071458;28;20868;-73
2021/09/03 02:59:23;;;;;;;58.27;2.90;;;10.80;1.00;;;;;;5071231;28;20534;-72
2021/09/03 03:01:49;;;;;;;58.73;3.10;;;10.70;1.00;;;;;;5071513;28;20541;-72
2021/09/03 03:04:16;;;;;;;58.63;3.30;;;10.70;1.00;;;;;;5071161;28;20573;-72
2021/09/03 03:06:45;;;;;;;60.80;3.97;;;10.70;1.00;;;;;;5071614;28;20502;-72
2021/09/03 03:09:11;;;;;;;60.23;3.30;;;10.70;1.00;;;;;;5071524;28;20526;-73
2021/09/03 03:11:38;;;;;;;58.67;3.00;;;10.70;1.00;;;;;;5071626;28;20658;-71
2021/09/03 03:14:10;;;;;;;58.97;3.50;;;10.70;1.00;;;;;;5071200;28;20462;-71
2021/09/03 03:16:38;;;;;;;58.47;2.80;;;10.70;1.00;;;;;;5071418;28;20486;-71
2021/09/03 03:19:05;;;;;;;58.47;2.90;;;10.70;1.00;;;;;;5071464;28;20541;-71
2021/09/03 03:21:32;;;;;;;58.33;3.00;;;10.70;1.00;;;;;;5071517;28;20449;-71
2021/09/03 03:24:00;;;;;;;58.60;3.00;;;10.70;1.00;;;;;;5071282;28;20486;-70
2021/09/03 03:26:27;;;;;;;58.50;2.87;;;10.70;1.00;;;;;;5071247;28;20901;-71
2021/09/03 03:28:54;;;;;;;58.77;3.10;;;10.60;1.00;;;;;;5071136;28;20538;-71
2021/09/03 03:31:21;;;;;;;58.60;2.87;;;10.50;1.00;;;;;;5074832;28;20530;-70
2021/09/03 03:33:48;;;;;;;58.77;3.20;;;10.50;1.00;;;;;;5075210;28;20504;-71
2021/09/03 03:36:15;;;;;;;59.20;3.53;;;10.50;1.00;;;;;;5075121;28;20448;-72
2021/09/03 03:38:41;;;;;;;58.77;3.07;;;10.40;1.00;;;;;;5074851;28;20961;-72
2021/09/03 03:41:10;;;;;;;60.07;3.10;;;10.50;1.00;;;;;;5074541;28;20544;-71
2021/09/03 03:43:36;;;;;;;58.80;3.13;;;10.50;1.00;;;;;;5074659;28;20515;-71
2021/09/03 03:46:03;;;;;;;58.40;2.87;;;10.50;1.00;;;;;;5074534;28;20462;-71
2021/09/03 03:48:30;;;;;;;58.47;2.90;;;10.50;1.00;;;;;;5074826;28;20533;-71
2021/09/03 03:50:57;;;;;;;58.87;3.20;;;10.50;1.00;;;;;;5074530;28;20532;-71
2021/09/03 03:53:24;;;;;;;58.57;3.00;;;10.50;1.00;;;;;;5074472;28;20494;-71
2021/09/03 03:55:51;;;;;;;58.90;3.10;;;10.40;1.00;;;;;;5074474;28;20443;-71
2021/09/03 03:58:19;;;;;;;58.67;3.03;;;10.40;1.00;;;;;;5074302;28;20456;-71
2021/09/03 04:00:46;;;;;;;58.67;2.80;;;10.50;1.00;;;;;;5074186;28;20962;-71
2021/09/03 04:03:13;;;;;;;58.53;3.00;;;10.50;1.00;;;;;;5074126;28;20506;-71
2021/09/03 04:05:40;;;;;;;58.90;3.20;;;10.50;1.00;;;;;;5074375;28;20537;-71
2021/09/03 04:08:07;;;;;;;58.37;2.87;;;10.40;1.00;;;;;;5074305;28;20534;-71
2021/09/03 04:10:35;;;;;;;58.40;2.90;;;10.40;1.00;;;;;;5073946;28;20542;-71
2021/09/03 04:13:02;;;;;;;58.67;3.33;;;10.40;1.00;;;;;;5073865;28;20476;-71
2021/09/03 04:15:30;;;;;;;58.40;2.97;;;10.30;1.00;;;;;;5074465;28;20445;-71
2021/09/03 04:17:57;;;;;;;58.53;2.90;;;10.20;1.00;;;;;;5074278;28;20446;-72
2021/09/03 04:20:24;;;;;;;58.57;3.00;;;10.10;1.00;;;;;;5073964;28;20477;-71
2021/09/03 04:22:51;;;;;;;58.47;2.90;;;10.10;1.00;;;;;;5073975;28;20554;-71
2021/09/03 04:25:18;;;;;;;58.47;2.90;;;10.00;1.00;;;;;;5073929;28;20540;-71
2021/09/03 04:27:44;;;;;;;58.67;2.80;;;10.00;1.00;;;;;;5074243;28;20552;-70
2021/09/03 04:30:12;;;;;;;58.53;2.90;;;10.00;1.00;;;;;;5073999;28;20486;-72
2021/09/03 04:32:41;;;;;;;58.77;3.10;;;10.00;1.00;;;;;;5073855;28;20463;-71
2021/09/03 04:35:09;;;;;;;60.20;3.40;;;10.00;1.00;;;;;;5073915;28;20890;-72
2021/09/03 04:37:40;;;;;;;58.27;2.90;;;10.00;1.00;;;;;;5073758;28;20451;-71
2021/09/03 04:40:08;;;;;;;58.60;3.00;;;10.00;1.00;;;;;;5073382;28;20499;-70
2021/09/03 04:42:35;;;;;;;59.03;3.20;;;10.00;1.00;;;;;;5072587;28;20504;-71
2021/09/03 04:45:02;;;;;;;58.80;3.27;;;10.00;1.00;;;;;;5073750;28;20568;-71
2021/09/03 04:47:29;;;;;;;58.47;2.80;;;10.00;1.00;;;;;;5073634;28;20493;-70
2021/09/03 04:49:57;;;;;;;58.70;2.97;;;9.90;1.00;;;;;;5073258;28;20545;-71
2021/09/03 04:52:24;;;;;;;58.63;2.80;;;9.80;1.00;;;;;;5073407;28;20845;-71
2021/09/03 04:54:51;;;;;;;58.63;3.00;;;9.80;1.00;;;;;;5073330;28;20478;-71
2021/09/03 04:57:18;;;;;;;59.40;4.00;;;9.80;1.00;;;;;;5073464;28;20450;-71
2021/09/03 04:59:45;;;;;;;58.67;3.00;;;9.80;1.00;;;;;;5073273;28;20882;-71
2021/09/03 05:02:11;;;;;;;58.67;2.87;;;9.70;1.00;;;;;;5073272;28;21016;-71
2021/09/03 05:04:38;;;;;;;58.60;3.00;;;9.70;1.00;;;;;;5073372;28;20494;-70
2021/09/03 05:07:06;;;;;;;58.37;2.63;;;9.70;1.00;;;;;;5073339;28;20446;-71
2021/09/03 05:09:33;;;;;;;58.33;2.90;;;9.70;1.00;;;;;;5073031;28;20829;-71
2021/09/03 05:12:00;;;;;;;58.67;3.03;;;9.80;1.00;;;;;;5073420;28;20540;-71
2021/09/03 05:14:27;;;;;;;58.77;3.00;;;9.80;1.00;;;;;;5073438;28;20461;-71
2021/09/03 05:16:54;;;;;;;58.57;2.90;;;9.80;1.00;;;;;;5072976;28;20534;-70
2021/09/03 05:19:21;;;;;;;59.00;3.23;;;9.80;1.00;;;;;;5073219;28;20561;-71
2021/09/03 05:21:47;;;;;;;58.83;3.10;;;9.90;1.00;;;;;;5073125;28;20884;-71
2021/09/03 05:24:16;;;;;;;58.60;2.83;;;9.90;1.00;;;;;;5072666;28;20586;-71
2021/09/03 05:26:42;;;;;;;58.73;3.30;;;9.90;1.00;;;;;;5073181;28;20527;-70
2021/09/03 05:29:09;;;;;;;59.20;3.20;;;9.90;1.00;;;;;;5072455;28;20540;-71
2021/09/03 05:31:36;;;;;;;58.87;3.33;;;9.90;1.00;;;;;;5072824;28;20456;-70
2021/09/03 05:34:03;;;;;;;58.73;3.00;;;9.90;1.00;;;;;;5072489;28;20902;-71
2021/09/03 05:36:30;;;;;;;58.53;2.90;;;10.00;1.00;;;;;;5072816;28;20510;-71
2021/09/03 05:38:57;;;;;;;58.37;3.10;;;10.00;1.00;;;;;;5072711;28;20883;-71
2021/09/03 05:41:25;;;;;;;58.43;2.90;;;10.00;1.00;;;;;;5072396;28;20534;-71
2021/09/03 05:43:52;;;;;;;59.30;3.97;;;10.10;1.00;;;;;;5072233;28;20573;-71
2021/09/03 05:46:19;;;;;;;58.43;3.00;;;10.10;1.00;;;;;;5072320;28;20486;-71
2021/09/03 05:48:45;;;;;;;58.33;3.00;;;10.10;1.00;;;;;;5072409;28;20546;-72
2021/09/03 05:51:12;;;;;;;58.50;3.30;;;10.10;1.00;;;;;;5072263;28;20804;-72
2021/09/03 05:53:39;;;;;;;59.07;3.63;;;10.20;1.00;;;;;;5072364;28;20503;-71
2021/09/03 05:56:06;;;;;;;59.07;3.30;;;10.20;1.00;;;;;;5072160;28;20460;-72
2021/09/03 05:58:37;;;;;;;58.77;3.20;;;10.30;1.00;;;;;;5072412;28;20451;-71
2021/09/03 06:01:04;;;;;;;58.67;3.10;;;10.30;1.00;;;;;;5072404;28;20534;-71
2021/09/03 06:03:31;;;;;;;58.57;3.13;;;10.40;1.00;;;;;;5071934;28;20706;-71
2021/09/03 06:05:57;;;;;;;58.40;3.00;;;10.40;1.00;;;;;;5072380;28;20569;-71
2021/09/03 06:08:24;;;;;;;58.37;3.07;;;10.50;1.00;;;;;;5072279;28;20443;-71
2021/09/03 06:10:51;;;;;;;58.60;3.00;;;10.50;1.00;;;;;;5071785;28;20978;-71
2021/09/03 06:13:18;;;;;;;58.53;3.10;;;10.60;1.00;;;;;;5071903;28;20545;-71
2021/09/03 06:15:47;;;;;;;58.60;3.20;;;10.60;1.00;;;;;;5071969;28;20918;-70
2021/09/03 06:18:14;;;;;;;58.90;4.27;;;10.70;1.00;;;;;;5072145;28;20811;-71
2021/09/03 06:20:41;;;;;;;58.23;2.80;;;10.80;1.00;;;;;;5071754;28;20967;-70
2021/09/03 06:23:08;;;;;;;58.57;3.40;;;10.90;1.00;;;;;;5071754;28;20473;-71
2021/09/03 06:25:35;;;;;;;59.20;3.40;;;10.90;1.00;;;;;;5071728;28;20518;-71
2021/09/03 06:28:02;;;;;;;58.40;2.70;;;11.00;1.00;;;;;;5071844;28;20534;-71
2021/09/03 06:30:29;;;;;;;58.57;3.13;;;11.00;1.00;;;;;;5071557;28;20489;-71
2021/09/03 06:32:57;;;;;;;58.63;3.10;;;11.00;1.00;;;;;;5071575;28;20502;-71
2021/09/03 06:35:24;;;;;;;59.83;3.43;;;11.10;1.00;;;;;;5071805;28;20522;-70
2021/09/03 06:37:51;;;;;;;58.47;3.00;;;11.20;1.00;;;;;;5072118;28;20451;-72
2021/09/03 06:40:17;;;;;;;58.80;3.20;;;11.20;1.00;;;;;;5077597;28;20539;-72
2021/09/03 06:42:44;;;;;;;58.80;3.30;;;11.30;1.00;;;;;;5079911;28;20502;-72
2021/09/03 06:45:12;;;;;;;58.50;3.00;;;11.40;1.00;;;;;;5075327;28;20621;-71
2021/09/03 06:47:39;;;;;;;59.83;3.20;;;11.50;1.00;;;;;;5071878;28;20453;-71
2021/09/03 06:50:09;;;;;;;58.37;3.10;;;11.60;1.00;;;;;;5071459;28;20545;-72
2021/09/03 06:52:36;;;;;;;58.53;3.33;;;11.60;1.00;;;;;;5071595;28;20471;-72
2021/09/03 06:55:04;;;;;;;58.67;3.27;;;11.70;1.00;;;;;;5071675;28;20482;-71
2021/09/03 06:57:30;;;;;;;58.57;3.07;;;11.80;1.00;;;;;;5071486;28;20525;-71
2021/09/03 06:59:57;;;;;;;58.43;2.93;;;11.90;1.00;;;;;;5071342;28;20478;-72
2021/09/03 07:02:24;;;;;;;61.97;5.73;;;11.90;1.00;;;;;;5071349;28;20553;-72
2021/09/03 07:04:51;;;;;;;59.00;3.07;;;12.00;1.00;;;;;;5072658;28;20603;-72
2021/09/03 07:07:19;;;;;;;58.27;2.77;;;12.10;1.00;;;;;;5075466;28;20454;-72
2021/09/03 07:09:46;;;;;;;58.37;2.90;;;12.10;1.00;;;;;;5075214;28;21022;-72
2021/09/03 07:12:13;;;;;;;59.50;3.97;;;12.30;1.00;;;;;;5075162;28;20562;-72
2021/09/03 07:14:40;;;;;;;59.57;4.13;;;12.40;1.00;;;;;;5075535;28;20443;-72
2021/09/03 07:17:07;;;;;;;58.80;3.70;;;12.50;1.00;;;;;;5075367;28;20453;-71
2021/09/03 07:19:34;;;;;;;58.67;3.10;;;12.60;1.00;;;;;;5075219;28;20546;-72
2021/09/03 07:22:02;;;;;;;58.57;2.80;;;12.70;1.00;;;;;;5075518;28;20821;-72
2021/09/03 07:24:31;;;;;;;58.60;2.80;;;12.80;1.00;;;;;;5074980;28;20998;-72
2021/09/03 07:26:58;;;;;;;58.63;3.07;;;12.90;1.00;;;;;;5074855;28;20454;-72
2021/09/03 07:29:25;;;;;;;58.47;2.70;;;13.10;1.00;;;;;;5075049;28;20443;-72
2021/09/03 07:31:52;;;;;;;58.27;2.70;;;13.20;1.00;;;;;;5074870;28;20479;-71
2021/09/03 07:34:19;;;;;;;58.40;2.80;;;13.40;1.00;;;;;;5075074;28;20888;-72
2021/09/03 07:36:45;;;;;;;58.67;3.37;;;13.60;1.00;;;;;;5074829;28;20443;-72
2021/09/03 07:39:17;;;;;;;58.50;3.50;;;13.80;1.00;;;;;;5074595;28;20450;-72
2021/09/03 07:41:46;;;;;;;58.50;2.90;;;13.90;1.00;;;;;;5075078;28;20451;-72
2021/09/03 07:44:13;;;;;;;58.50;3.83;;;14.10;1.00;;;;;;5074746;28;20549;-72
2021/09/03 07:46:40;;;;;;;58.27;3.00;;;14.20;1.00;;;;;;5074833;28;20503;-71
2021/09/03 07:49:07;;;;;;;58.30;3.33;;;14.30;1.00;;;;;;5074738;28;20455;-71
2021/09/03 07:51:34;;;;;;;58.63;3.43;;;14.50;1.00;;;;;;5074632;28;20457;-72
2021/09/03 07:54:00;;;;;;;58.23;2.80;;;14.60;1.00;;;;;;5074409;28;20467;-72
2021/09/03 07:56:27;;;;;;;58.97;3.30;;;14.70;1.00;;;;;;5074762;28;20447;-72
2021/09/03 07:58:55;;;;;;;58.47;2.77;;;14.80;1.00;;;;;;5074629;28;20534;-72
2021/09/03 08:01:22;;;;;;;58.80;3.03;;;14.90;1.00;;;;;;5074730;28;20469;-72
2021/09/03 08:03:49;;;;;;;58.70;3.10;;;15.10;1.00;;;;;;5074338;28;20570;-71
2021/09/03 08:06:16;;;;;;;58.60;2.90;;;15.30;1.00;;;;;;5074181;28;21022;-70
2021/09/03 08:08:43;;;;;;;57.97;2.80;;;15.40;1.00;;;;;;5074255;28;20529;-71
2021/09/03 08:11:10;;;;;;;58.27;3.07;;;15.50;1.00;;;;;;5074308;28;20480;-72
2021/09/03 08:13:36;;;;;;;58.53;2.90;;;15.60;1.00;;;;;;5074061;28;20469;-71
2021/09/03 08:16:05;;;;;;;58.60;2.80;;;15.70;1.00;;;;;;5073109;28;20544;-72
2021/09/03 08:18:32;;;;;;;58.17;2.60;;;15.90;1.00;;;;;;5074172;28;20539;-72
2021/09/03 08:20:59;;;;;;;58.07;2.60;;;16.00;1.00;;;;;;5073766;28;20530;-72
2021/09/03 08:23:27;;;;;;;58.53;3.20;;;16.10;1.00;;;;;;5074275;28;20504;-72
2021/09/03 08:25:54;;;;;;;58.57;3.20;;;16.20;1.00;;;;;;5074040;28;20855;-72
2021/09/03 08:28:21;;;;;;;58.40;3.33;;;16.40;1.00;;;;;;5074242;28;20531;-72
2021/09/03 08:30:47;;;;;;;58.17;3.00;;;16.50;1.00;;;;;;5073732;28;20453;-72
2021/09/03 08:33:16;;;;;;;58.60;2.90;;;16.70;1.00;;;;;;5073824;28;20906;-72
2021/09/03 08:35:42;;;;;;;58.17;2.70;;;16.90;1.00;;;;;;5073696;28;20452;-72
2021/09/03 08:38:09;;;;;;;58.30;2.70;;;17.00;1.00;;;;;;5074037;28;20536;-71
2021/09/03 08:40:37;;;;;;;57.73;2.70;;;17.10;1.00;;;;;;5073991;28;20876;-72
2021/09/03 08:43:05;;;;;;;58.80;3.50;;;17.30;1.00;;;;;;5073799;28;20470;-72
2021/09/03 08:45:32;;;;;;;58.53;2.83;;;17.40;1.00;;;;;;5073973;28;20478;-72
2021/09/03 08:47:59;;;;;;;59.43;3.77;;;17.60;1.00;;;;;;5073931;28;20537;-72
2021/09/03 08:50:28;;;;;;;58.30;2.70;;;17.80;1.00;;;;;;5073649;28;20460;-72
2021/09/03 08:52:56;;;;;;;58.27;2.50;;;18.00;1.00;;;;;;5073587;28;20466;-72
2021/09/03 08:55:23;;;;;;;58.40;2.70;;;18.10;1.00;;;;;;5073655;28;20529;-72
2021/09/03 08:57:50;;;;;;;58.47;3.00;;;18.20;1.00;;;;;;5073361;28;20458;-71
2021/09/03 09:00:23;;;;;;;58.37;2.40;;;18.40;1.00;;;;;;5073304;28;20452;-72
2021/09/03 09:03:02;;;;;;;57.83;2.70;;;18.50;1.00;;;;;;5073420;28;20564;-72
2021/09/03 09:05:56;;;;;;;58.20;2.67;;;18.70;1.00;;;;;;5073311;28;20599;-72
2021/09/03 09:08:24;;;;;;;58.27;2.60;;;18.80;1.00;;;;;;5065247;28;20951;-72
2021/09/03 09:10:56;;;;;;;58.57;3.10;;;19.00;1.00;;;;;;5072920;28;20481;-72
2021/09/03 09:13:26;;;;;;;58.07;2.63;;;19.10;1.00;;;;;;5072975;28;21025;-72
2021/09/03 09:16:05;;;;;;;58.37;2.60;;;19.20;1.00;;;;;;5073270;28;20461;-72
2021/09/03 09:18:44;;;;;;;57.97;2.50;;;19.40;1.00;;;;;;5073338;28;20535;-73
2021/09/03 09:21:19;;;;;;;58.50;3.37;;;19.60;1.00;;;;;;5072783;28;20446;-72
2021/09/03 09:23:48;;;;;;;58.17;2.77;;;19.80;1.00;;;;;;5072978;28;20549;-72
2021/09/03 09:26:16;;;;;;;58.07;2.47;;;20.00;1.00;;;;;;5073027;28;20574;-72
2021/09/03 09:28:44;;;;;;;58.47;2.40;;;20.10;1.00;;;;;;5072723;28;20455;-72
2021/09/03 09:31:12;;;;;;;58.07;2.50;;;20.40;1.00;;;;;;5072646;28;20809;-72
2021/09/03 09:33:45;;;;;;;58.47;2.43;;;20.60;1.00;;;;;;5072692;28;20500;-72
2021/09/03 09:36:15;;;;;;;58.40;2.80;;;20.80;1.00;;;;;;5072955;28;20465;-72
2021/09/03 09:38:42;;;;;;;58.57;3.00;;;21.10;1.00;;;;;;5072745;28;20543;-72
2021/09/03 09:41:09;;;;;;;58.10;2.67;;;21.20;1.00;;;;;;5072598;28;20909;-70
2021/09/03 09:43:37;;;;;;;58.07;2.40;;;21.40;1.00;;;;;;5072600;28;20465;-71
2021/09/03 09:46:17;;;;;;;59.93;3.10;;;21.60;1.00;;;;;;5072479;28;20573;-71
2021/09/03 09:49:11;;;;;;;58.13;2.70;;;21.70;1.00;;;;;;5072399;28;20494;-71
2021/09/03 09:51:45;;;;;;;58.27;2.70;;;21.90;1.00;;;;;;5072454;28;20507;-71
2021/09/03 09:54:15;;;;;;;58.27;2.60;;;22.20;1.00;;;;;;5072306;28;20557;-70
2021/09/03 09:56:44;;;;;;;58.03;2.47;;;22.30;1.00;;;;;;5072193;28;20843;-71
2021/09/03 09:59:12;;;;;;;57.67;2.40;;;22.60;1.00;;;;;;5072116;28;20447;-71
2021/09/03 10:01:42;;;;;;;58.27;2.70;;;23.00;1.00;;;;;;5072158;28;20479;-70
2021/09/03 10:04:11;;;;;;;58.13;2.60;;;24.20;1.00;;;;;;5071815;28;20569;-71
2021/09/03 10:06:39;;;;;;;59.80;3.00;;;25.70;1.00;;;;;;5071998;28;20482;-71
2021/09/03 10:09:10;;;;;;;58.27;3.00;;;27.10;1.00;;;;;;5072265;28;20538;-71
2021/09/03 10:11:41;;;;;;;58.17;2.70;;;28.30;1.00;;;;;;5072077;28;20883;-71
2021/09/03 10:14:10;;;;;;;59.00;2.67;;;29.40;1.00;;;;;;5072430;28;20461;-71
2021/09/03 10:16:37;;;;;;;58.17;2.50;;;30.10;1.00;;;;;;5072194;28;20459;-70
2021/09/03 10:19:07;;;;;;;58.20;2.50;;;30.80;1.00;;;;;;5071912;28;20544;-69
2021/09/03 10:21:37;;;;;;;58.37;2.50;;;31.50;1.00;;;;;;5071942;28;20486;-70
2021/09/03 10:24:11;;;;;;;58.10;2.60;;;32.00;1.00;;;;;;5072003;28;20866;-71
2021/09/03 10:26:40;;;;;;;57.80;2.87;;;32.50;1.00;;;;;;5071977;28;20569;-72
2021/09/03 10:29:29;;;;;;;59.40;4.70;;;32.90;1.00;;;;;;5071699;28;20444;-71
2021/09/03 10:32:17;;;;;;;58.40;2.43;;;33.30;1.00;;;;;;5071791;28;20519;-71
2021/09/03 10:35:04;;;;;;;58.10;2.60;;;33.50;1.00;;;;;;5071807;28;20447;-71
2021/09/03 10:37:37;;;;;;;57.87;2.50;;;33.70;1.00;;;;;;5072017;28;20522;-71
2021/09/03 10:40:14;;;;;;;57.47;2.20;;;34.10;1.00;;;;;;5070949;28;20486;-71
2021/09/03 10:42:56;;;;;;;58.27;2.83;;;34.50;1.00;;;;;;5071558;28;20499;-71
2021/09/03 10:45:26;;;;;;;57.30;2.30;;;34.70;1.00;;;;;;5071823;28;20509;-71
2021/09/03 10:48:08;;;;;;;57.67;3.30;;;34.90;1.00;;;;;;5071841;28;20443;-71
2021/09/03 10:50:37;;;;;;;57.60;2.70;;;35.20;1.00;;;;;;5071530;28;20504;-71
2021/09/03 10:53:26;;;;;;;57.10;2.30;;;35.40;1.00;;;;;;5071506;28;20468;-71
2021/09/03 10:56:13;;;;;;;57.90;2.47;;;35.70;1.00;;;;;;5071726;28;20861;-72
2021/09/03 10:58:43;;;;;;;58.47;2.60;;;35.60;1.00;;;;;;5070855;28;20551;-71
2021/09/03 11:01:56;;;;;;;57.13;2.47;;;35.30;1.00;;;;;;5071789;28;20530;-71
2021/09/03 11:04:25;;;;;;;57.70;2.40;;;35.40;1.00;;;;;;5035662;28;20540;-71
2021/09/03 11:07:08;;;;;;;57.70;2.77;;;35.60;1.00;;;;;;5071513;28;20489;-71
2021/09/03 11:09:36;;;;;;;57.97;2.90;;;35.50;1.00;;;;;;5071281;28;20454;-71
2021/09/03 11:12:10;;;;;;;57.90;2.77;;;35.60;1.00;;;;;;5071351;28;20538;-71
2021/09/03 11:14:38;;;;;;;57.50;2.60;;;35.70;1.00;;;;;;5071538;28;20911;-71
2021/09/03 11:17:06;;;;;;;57.07;2.70;;;36.10;1.00;;;;;;5071543;28;20448;-71
2021/09/03 11:19:35;;;;;;;57.10;2.77;;;36.60;1.00;;;;;;5071724;28;20504;-69
2021/09/03 11:22:06;;;;;;;59.37;2.60;;;37.20;1.00;;;;;;5071254;28;21107;-69
2021/09/03 11:24:35;;;;;;;57.70;3.27;;;37.20;1.00;;;;;;5071597;28;20486;-69
2021/09/03 11:27:05;;;;;;;57.80;2.87;;;37.50;1.00;;;;;;5071527;28;20479;-69
2021/09/03 11:29:35;;;;;;;57.70;2.63;;;37.50;1.00;;;;;;5071295;28;20448;-69
2021/09/03 11:32:07;;;;;;;57.17;2.37;;;37.30;1.00;;;;;;5071436;28;20475;-70
2021/09/03 11:34:54;;;;;;;57.87;2.90;;;37.10;1.00;;;;;;5071533;28;20489;-70
2021/09/03 11:37:24;;;;;;;57.40;2.50;;;37.40;1.00;;;;;;5071600;28;20522;-70
2021/09/03 11:39:52;;;;;;;56.90;2.00;;;38.00;1.00;;;;;;5071114;28;20446;-70
2021/09/03 11:42:25;;;;;;;57.17;2.67;;;38.30;1.00;;;;;;5071042;28;20467;-71
2021/09/03 11:44:58;;;;;;;58.23;2.70;;;38.60;1.00;;;;;;5071494;28;20432;-70
2021/09/03 11:47:35;;;;;;;57.50;2.90;;;38.70;1.00;;;;;;5070965;28;20578;-70
2021/09/03 11:50:11;;;;;;;57.20;2.20;;;38.50;1.00;;;;;;5071200;28;20447;-70
2021/09/03 11:52:38;;;;;;;57.50;2.57;;;38.30;1.00;;;;;;5074617;28;20545;-70
2021/09/03 11:55:08;;;;;;;56.77;2.10;;;38.30;1.00;;;;;;5074808;28;20443;-70
2021/09/03 11:57:54;;;;;;;57.50;2.50;;;38.30;1.00;;;;;;5074455;28;20446;-70
2021/09/03 12:00:23;;;;;;;57.20;2.20;;;38.40;1.00;;;;;;5074564;28;20447;-70
2021/09/03 12:02:52;;;;;;;57.00;2.47;;;38.20;1.00;;;;;;5074247;28;20485;-70
2021/09/03 12:05:20;;;;;;;57.50;2.53;;;38.10;1.00;;;;;;5074480;28;20458;-70
2021/09/03 12:08:14;;;;;;;57.03;2.10;;;38.00;1.00;;;;;;5074798;28;20562;-70
2021/09/03 12:10:44;;;;;;;57.47;2.50;;;38.00;1.00;;;;;;5074213;28;20447;-70
2021/09/03 12:13:14;;;;;;;57.50;2.40;;;38.00;1.00;;;;;;5074423;28;20463;-70
2021/09/03 12:15:44;;;;;;;57.23;2.60;;;38.40;1.00;;;;;;5074287;28;20544;-70
2021/09/03 12:18:23;;;;;;;57.17;2.50;;;38.90;1.00;;;;;;5074236;28;20482;-70
2021/09/03 12:20:52;;;;;;;57.80;2.60;;;39.30;1.00;;;;;;5074290;28;20542;-70
2021/09/03 12:23:20;;;;;;;56.77;2.50;;;39.80;1.00;;;;;;5074187;28;21062;-70
2021/09/03 12:25:47;;;;;;;57.70;2.67;;;40.30;1.00;;;;;;5073926;28;20815;-73
2021/09/03 12:28:16;;;;;;;57.37;2.30;;;40.40;1.00;;;;;;5074013;28;20912;-71
2021/09/03 12:30:50;;;;;;;57.37;2.53;;;40.20;1.00;;;;;;5073815;28;20442;-71
2021/09/03 12:33:21;;;;;;;56.83;2.20;;;40.00;1.00;;;;;;5073745;28;20463;-71
2021/09/03 12:35:48;;;;;;;56.77;2.70;;;40.00;1.00;;;;;;5074066;28;20541;-71
2021/09/03 12:38:15;;;;;;;56.27;2.30;;;40.30;1.00;;;;;;5073989;28;20448;-71
2021/09/03 12:40:42;;;;;;;57.40;2.97;;;40.20;1.00;;;;;;5073951;28;20443;-71
2021/09/03 12:43:13;;;;;;;57.53;2.60;;;40.10;1.00;;;;;;5073680;28;20463;-71
2021/09/03 12:45:46;;;;;;;57.30;2.50;;;40.30;1.00;;;;;;5073522;28;20451;-70
2021/09/03 12:48:14;;;;;;;57.20;2.67;;;40.70;1.00;;;;;;5073800;28;20443;-70
2021/09/03 12:50:46;;;;;;;57.27;3.07;;;40.80;1.00;;;;;;5073988;28;20836;-70
2021/09/03 12:53:20;;;;;;;57.10;2.60;;;40.10;1.00;;;;;;5073576;28;20908;-70
2021/09/03 12:55:48;;;;;;;57.40;2.53;;;39.50;1.00;;;;;;5073393;28;20459;-70